sensor_id;sensor_type;location;lat;lon;timestamp;pressure;altitude;pressure_sealevel;temperature;humidity
12475;BME280;6302;42.624;23.334;2023-09-18T00:02:21;93796.81;;;17.38;100.00
12475;BME280;6302;42.624;23.334;2023-09-18T00:08:12;93784.34;;;17.31;100.00
12475;BME280;6302;42.624;23.334;2023-09-18T00:10:52;93782.50;;;17.28;100.00
12475;BME280;6302;42.624;23.334;2023-09-18T00:13:27;93782.25;;;17.39;100.00
12475;BME280;6302;42.624;23.334;2023-09-18T00:16:01;93784.50;;;17.40;100.00
12475;BME280;6302;42.624;23.334;2023-09-18T00:18:36;93787.72;;;17.35;100.00
12475;BME280;6302;42.624;23.334;2023-09-18T00:21:30;93776.31;;;17.31;100.00
12475;BME280;6302;42.624;23.334;2023-09-18T00:24:24;93789.31;;;17.33;100.00
12475;BME280;6302;42.624;23.334;2023-09-18T00:27:17;93787.78;;;17.32;100.00
12475;BME280;6302;42.624;23.334;2023-09-18T00:29:56;93792.38;;;17.31;100.00
12475;BME280;6302;42.624;23.334;2023-09-18T00:32:35;93787.13;;;17.28;100.00
12475;BME280;6302;42.624;23.334;2023-09-18T00:35:26;93790.13;;;17.30;100.00
12475;BME280;6302;42.624;23.334;2023-09-18T00:38:14;93795.50;;;17.30;100.00
12475;BME280;6302;42.624;23.334;2023-09-18T00:40:48;93800.09;;;17.29;100.00
12475;BME280;6302;42.624;23.334;2023-09-18T00:43:18;93808.75;;;17.05;100.00
12475;BME280;6302;42.624;23.334;2023-09-18T00:45:56;93805.25;;;17.08;100.00
12475;BME280;6302;42.624;23.334;2023-09-18T00:48:38;93803.72;;;17.07;100.00
12475;BME280;6302;42.624;23.334;2023-09-18T00:51:22;93799.13;;;17.07;100.00
12475;BME280;6302;42.624;23.334;2023-09-18T00:54:08;93805.13;;;17.11;100.00
12475;BME280;6302;42.624;23.334;2023-09-18T00:56:47;93813.53;;;17.13;100.00
12475;BME280;6302;42.624;23.334;2023-09-18T00:59:31;93819.63;;;17.14;100.00
12475;BME280;6302;42.624;23.334;2023-09-18T01:02:04;93819.72;;;17.10;100.00
12475;BME280;6302;42.624;23.334;2023-09-18T01:04:57;93811.00;;;17.06;100.00
12475;BME280;6302;42.624;23.334;2023-09-18T01:07:37;93819.03;;;17.06;100.00
12475;BME280;6302;42.624;23.334;2023-09-18T01:10:21;93824.50;;;17.03;100.00
12475;BME280;6302;42.624;23.334;2023-09-18T01:13:14;93823.91;;;16.95;100.00
12475;BME280;6302;42.624;23.334;2023-09-18T01:16:12;93829.31;;;16.91;100.00
12475;BME280;6302;42.624;23.334;2023-09-18T01:19:05;93825.56;;;16.89;100.00
12475;BME280;6302;42.624;23.334;2023-09-18T01:21:39;93817.19;;;16.87;100.00
12475;BME280;6302;42.624;23.334;2023-09-18T01:24:33;93820.38;;;16.82;100.00
12475;BME280;6302;42.624;23.334;2023-09-18T01:27:09;93813.69;;;16.74;100.00
12475;BME280;6302;42.624;23.334;2023-09-18T01:29:46;93817.13;;;16.74;100.00
12475;BME280;6302;42.624;23.334;2023-09-18T01:32:24;93819.88;;;16.71;100.00
12475;BME280;6302;42.624;23.334;2023-09-18T01:35:10;93820.38;;;16.66;100.00
12475;BME280;6302;42.624;23.334;2023-09-18T01:37:56;93812.34;;;16.66;100.00
12475;BME280;6302;42.624;23.334;2023-09-18T01:40:44;93813.19;;;16.63;100.00
12475;BME280;6302;42.624;23.334;2023-09-18T01:43:36;93823.88;;;16.63;100.00
12475;BME280;6302;42.624;23.334;2023-09-18T01:46:34;93808.06;;;16.52;100.00
12475;BME280;6302;42.624;23.334;2023-09-18T01:49:14;93807.66;;;16.54;100.00
12475;BME280;6302;42.624;23.334;2023-09-18T01:51:55;93813.34;;;16.56;100.00
12475;BME280;6302;42.624;23.334;2023-09-18T01:54:32;93811.00;;;16.58;100.00
12475;BME280;6302;42.624;23.334;2023-09-18T01:57:18;93814.44;;;16.58;100.00
12475;BME280;6302;42.624;23.334;2023-09-18T02:00:02;93817.78;;;16.62;100.00
12475;BME280;6302;42.624;23.334;2023-09-18T02:02:40;93813.50;;;16.65;100.00
12475;BME280;6302;42.624;23.334;2023-09-18T02:05:15;93815.53;;;16.61;100.00
12475;BME280;6302;42.624;23.334;2023-09-18T02:08:00;93818.97;;;16.61;100.00
12475;BME280;6302;42.624;23.334;2023-09-18T02:10:48;93820.88;;;16.61;100.00
12475;BME280;6302;42.624;23.334;2023-09-18T02:16:19;93817.00;;;16.62;100.00
12475;BME280;6302;42.624;23.334;2023-09-18T02:18:59;93827.81;;;16.58;100.00
12475;BME280;6302;42.624;23.334;2023-09-18T02:21:34;93823.94;;;16.59;100.00
12475;BME280;6302;42.624;23.334;2023-09-18T02:24:13;93821.63;;;16.61;100.00
12475;BME280;6302;42.624;23.334;2023-09-18T02:26:59;93826.28;;;16.57;100.00
12475;BME280;6302;42.624;23.334;2023-09-18T02:29:54;93826.22;;;16.61;100.00
12475;BME280;6302;42.624;23.334;2023-09-18T02:32:34;93825.53;;;16.57;100.00
12475;BME280;6302;42.624;23.334;2023-09-18T02:35:10;93820.19;;;16.57;100.00
12475;BME280;6302;42.624;23.334;2023-09-18T02:37:54;93821.38;;;16.56;100.00
12475;BME280;6302;42.624;23.334;2023-09-18T02:40:42;93827.88;;;16.55;100.00
12475;BME280;6302;42.624;23.334;2023-09-18T02:43:31;93821.84;;;16.51;100.00
12475;BME280;6302;42.624;23.334;2023-09-18T02:46:20;93823.34;;;16.52;100.00
12475;BME280;6302;42.624;23.334;2023-09-18T02:48:57;93822.19;;;16.53;100.00
12475;BME280;6302;42.624;23.334;2023-09-18T02:51:36;93824.50;;;16.51;100.00
12475;BME280;6302;42.624;23.334;2023-09-18T02:54:16;93820.81;;;16.45;100.00
12475;BME280;6302;42.624;23.334;2023-09-18T02:56:58;93822.66;;;16.48;100.00
12475;BME280;6302;42.624;23.334;2023-09-18T02:59:43;93826.44;;;16.50;100.00
12475;BME280;6302;42.624;23.334;2023-09-18T03:02:22;93834.06;;;16.52;100.00
12475;BME280;6302;42.624;23.334;2023-09-18T03:05:07;93829.16;;;16.47;100.00
12475;BME280;6302;42.624;23.334;2023-09-18T03:07:37;93831.13;;;16.46;100.00
12475;BME280;6302;42.624;23.334;2023-09-18T03:10:16;93834.88;;;16.49;100.00
12475;BME280;6302;42.624;23.334;2023-09-18T03:12:58;93835.72;;;16.46;100.00
12475;BME280;6302;42.624;23.334;2023-09-18T03:15:38;93829.53;;;16.49;100.00
12475;BME280;6302;42.624;23.334;2023-09-18T03:18:15;93822.66;;;16.48;100.00
12475;BME280;6302;42.624;23.334;2023-09-18T03:20:53;93823.09;;;16.46;100.00
12475;BME280;6302;42.624;23.334;2023-09-18T03:23:26;93819.72;;;16.42;100.00
12475;BME280;6302;42.624;23.334;2023-09-18T03:25:58;93821.78;;;16.35;100.00
12475;BME280;6302;42.624;23.334;2023-09-18T03:28:38;93822.28;;;16.29;100.00
12475;BME280;6302;42.624;23.334;2023-09-18T03:31:06;93811.25;;;16.27;100.00
12475;BME280;6302;42.624;23.334;2023-09-18T03:33:50;93808.50;;;16.31;100.00
12475;BME280;6302;42.624;23.334;2023-09-18T03:36:24;93806.81;;;16.21;100.00
12475;BME280;6302;42.624;23.334;2023-09-18T03:39:15;93802.72;;;16.16;100.00
12475;BME280;6302;42.624;23.334;2023-09-18T03:41:56;93803.38;;;16.20;100.00
12475;BME280;6302;42.624;23.334;2023-09-18T03:44:32;93801.91;;;16.19;100.00
12475;BME280;6302;42.624;23.334;2023-09-18T03:47:07;93794.88;;;16.25;100.00
12475;BME280;6302;42.624;23.334;2023-09-18T03:49:40;93797.53;;;16.25;100.00
12475;BME280;6302;42.624;23.334;2023-09-18T03:52:19;93790.00;;;16.20;100.00
12475;BME280;6302;42.624;23.334;2023-09-18T03:54:52;93795.69;;;16.22;100.00
12475;BME280;6302;42.624;23.334;2023-09-18T03:57:34;93788.53;;;16.19;100.00
12475;BME280;6302;42.624;23.334;2023-09-18T04:00:03;93794.31;;;16.34;100.00
12475;BME280;6302;42.624;23.334;2023-09-18T04:02:37;93793.22;;;16.32;100.00
12475;BME280;6302;42.624;23.334;2023-09-18T04:05:24;93799.31;;;16.32;100.00
12475;BME280;6302;42.624;23.334;2023-09-18T04:07:56;93790.88;;;16.34;100.00
12475;BME280;6302;42.624;23.334;2023-09-18T04:10:28;93800.00;;;16.36;100.00
12475;BME280;6302;42.624;23.334;2023-09-18T04:13:02;93805.06;;;16.31;100.00
12475;BME280;6302;42.624;23.334;2023-09-18T04:15:44;93806.66;;;16.28;100.00
12475;BME280;6302;42.624;23.334;2023-09-18T04:18:25;93803.38;;;16.20;100.00
12475;BME280;6302;42.624;23.334;2023-09-18T04:21:07;93808.41;;;16.18;100.00
12475;BME280;6302;42.624;23.334;2023-09-18T04:23:41;93812.59;;;16.19;100.00
12475;BME280;6302;42.624;23.334;2023-09-18T04:26:11;93815.94;;;16.23;100.00
12475;BME280;6302;42.624;23.334;2023-09-18T04:28:43;93827.78;;;16.22;100.00
12475;BME280;6302;42.624;23.334;2023-09-18T04:31:16;93835.81;;;16.22;100.00
12475;BME280;6302;42.624;23.334;2023-09-18T04:33:51;93824.28;;;16.25;100.00
12475;BME280;6302;42.624;23.334;2023-09-18T04:36:39;93821.63;;;16.25;100.00
12475;BME280;6302;42.624;23.334;2023-09-18T04:39:15;93826.13;;;16.28;100.00
12475;BME280;6302;42.624;23.334;2023-09-18T04:41:51;93829.81;;;16.35;100.00
12475;BME280;6302;42.624;23.334;2023-09-18T04:44:24;93820.97;;;16.38;100.00
12475;BME280;6302;42.624;23.334;2023-09-18T04:46:56;93826.16;;;16.45;100.00
12475;BME280;6302;42.624;23.334;2023-09-18T04:49:26;93834.06;;;16.52;100.00
12475;BME280;6302;42.624;23.334;2023-09-18T04:52:03;93825.63;;;16.53;100.00
12475;BME280;6302;42.624;23.334;2023-09-18T04:54:34;93836.25;;;16.57;100.00
12475;BME280;6302;42.624;23.334;2023-09-18T04:57:06;93828.56;;;16.59;100.00
12475;BME280;6302;42.624;23.334;2023-09-18T04:59:36;93825.47;;;16.60;100.00
12475;BME280;6302;42.624;23.334;2023-09-18T05:02:09;93824.88;;;16.53;100.00
12475;BME280;6302;42.624;23.334;2023-09-18T05:04:38;93826.28;;;16.57;100.00
12475;BME280;6302;42.624;23.334;2023-09-18T05:07:13;93828.91;;;16.61;100.00
12475;BME280;6302;42.624;23.334;2023-09-18T05:09:51;93822.47;;;16.58;100.00
12475;BME280;6302;42.624;23.334;2023-09-18T05:12:23;93816.56;;;16.47;100.00
12475;BME280;6302;42.624;23.334;2023-09-18T05:14:51;93813.63;;;16.42;100.00
12475;BME280;6302;42.624;23.334;2023-09-18T05:17:27;93834.06;;;16.52;100.00
12475;BME280;6302;42.624;23.334;2023-09-18T05:20:15;93822.66;;;16.48;100.00
12475;BME280;6302;42.624;23.334;2023-09-18T05:22:54;93827.94;;;16.51;100.00
12475;BME280;6302;42.624;23.334;2023-09-18T05:25:24;93834.91;;;16.65;100.00
12475;BME280;6302;42.624;23.334;2023-09-18T05:27:57;93836.44;;;16.66;100.00
12475;BME280;6302;42.624;23.334;2023-09-18T05:30:28;93832.25;;;16.65;100.00
12475;BME280;6302;42.624;23.334;2023-09-18T05:32:56;93837.34;;;16.59;100.00
12475;BME280;6302;42.624;23.334;2023-09-18T05:35:30;93832.75;;;16.60;100.00
12475;BME280;6302;42.624;23.334;2023-09-18T05:37:58;93841.63;;;16.73;100.00
12475;BME280;6302;42.624;23.334;2023-09-18T05:40:26;93838.94;;;16.73;100.00
12475;BME280;6302;42.624;23.334;2023-09-18T05:42:54;93847.84;;;16.86;100.00
12475;BME280;6302;42.624;23.334;2023-09-18T05:45:22;93848.50;;;16.90;100.00
12475;BME280;6302;42.624;23.334;2023-09-18T05:47:52;93851.16;;;17.06;100.00
12475;BME280;6302;42.624;23.334;2023-09-18T05:50:22;93849.69;;;17.05;100.00
12475;BME280;6302;42.624;23.334;2023-09-18T05:52:53;93850.34;;;17.09;100.00
12475;BME280;6302;42.624;23.334;2023-09-18T05:55:21;93851.25;;;17.19;100.00
12475;BME280;6302;42.624;23.334;2023-09-18T05:57:49;93858.56;;;17.18;100.00
12475;BME280;6302;42.624;23.334;2023-09-18T06:00:16;93860.38;;;17.21;100.00
12475;BME280;6302;42.624;23.334;2023-09-18T06:02:44;93857.63;;;17.25;100.00
12475;BME280;6302;42.624;23.334;2023-09-18T06:05:11;93856.03;;;17.27;100.00
12475;BME280;6302;42.624;23.334;2023-09-18T06:07:38;93857.78;;;17.34;100.00
12475;BME280;6302;42.624;23.334;2023-09-18T06:10:07;93854.25;;;17.37;100.00
12475;BME280;6302;42.624;23.334;2023-09-18T06:12:38;93852.81;;;17.48;100.00
12475;BME280;6302;42.624;23.334;2023-09-18T06:15:08;93856.66;;;17.64;100.00
12475;BME280;6302;42.624;23.334;2023-09-18T06:17:38;93857.34;;;17.68;100.00
12475;BME280;6302;42.624;23.334;2023-09-18T06:20:08;93850.28;;;17.74;100.00
12475;BME280;6302;42.624;23.334;2023-09-18T06:22:38;93862.31;;;17.82;100.00
12475;BME280;6302;42.624;23.334;2023-09-18T06:25:09;93851.31;;;17.92;100.00
12475;BME280;6302;42.624;23.334;2023-09-18T06:27:47;93852.41;;;18.07;100.00
12475;BME280;6302;42.624;23.334;2023-09-18T06:30:17;93857.78;;;18.07;100.00
12475;BME280;6302;42.624;23.334;2023-09-18T06:32:47;93860.25;;;18.02;100.00
12475;BME280;6302;42.624;23.334;2023-09-18T06:35:25;93863.69;;;18.15;100.00
12475;BME280;6302;42.624;23.334;2023-09-18T06:38:01;93852.25;;;18.27;100.00
12475;BME280;6302;42.624;23.334;2023-09-18T06:40:34;93862.91;;;18.43;100.00
12475;BME280;6302;42.624;23.334;2023-09-18T06:43:05;93863.91;;;18.62;100.00
12475;BME280;6302;42.624;23.334;2023-09-18T06:45:34;93858.66;;;18.58;100.00
12475;BME280;6302;42.624;23.334;2023-09-18T06:48:06;93840.09;;;18.51;100.00
12475;BME280;6302;42.624;23.334;2023-09-18T06:50:37;93856.31;;;18.73;100.00
12475;BME280;6302;42.624;23.334;2023-09-18T06:53:09;93859.84;;;18.70;100.00
12475;BME280;6302;42.624;23.334;2023-09-18T06:55:49;93865.00;;;18.77;100.00
12475;BME280;6302;42.624;23.334;2023-09-18T06:58:24;93854.91;;;18.81;100.00
12475;BME280;6302;42.624;23.334;2023-09-18T07:01:04;93864.06;;;18.83;100.00
12475;BME280;6302;42.624;23.334;2023-09-18T07:03:34;93855.47;;;18.89;100.00
12475;BME280;6302;42.624;23.334;2023-09-18T07:06:02;93862.94;;;18.94;100.00
12475;BME280;6302;42.624;23.334;2023-09-18T07:08:30;93860.25;;;19.06;100.00
12475;BME280;6302;42.624;23.334;2023-09-18T07:10:58;93858.44;;;19.16;100.00
12475;BME280;6302;42.624;23.334;2023-09-18T07:13:27;93861.09;;;19.28;100.00
12475;BME280;6302;42.624;23.334;2023-09-18T07:15:54;93868.84;;;19.39;100.00
12475;BME280;6302;42.624;23.334;2023-09-18T07:18:21;93864.81;;;19.56;100.00
12475;BME280;6302;42.624;23.334;2023-09-18T07:20:52;93864.56;;;19.63;100.00
12475;BME280;6302;42.624;23.334;2023-09-18T07:23:19;93868.84;;;19.73;100.00
12475;BME280;6302;42.624;23.334;2023-09-18T07:25:47;93861.75;;;19.79;100.00
12475;BME280;6302;42.624;23.334;2023-09-18T07:28:14;93871.50;;;19.86;100.00
12475;BME280;6302;42.624;23.334;2023-09-18T07:30:44;93875.25;;;19.88;100.00
12475;BME280;6302;42.624;23.334;2023-09-18T07:33:12;93866.25;;;20.04;100.00
12475;BME280;6302;42.624;23.334;2023-09-18T07:35:41;93867.63;;;20.08;100.00
12475;BME280;6302;42.624;23.334;2023-09-18T07:38:09;93871.13;;;20.18;100.00
12475;BME280;6302;42.624;23.334;2023-09-18T07:40:37;93875.41;;;20.28;100.00
12475;BME280;6302;42.624;23.334;2023-09-18T07:43:04;93865.91;;;20.15;100.00
12475;BME280;6302;42.624;23.334;2023-09-18T07:45:31;93841.59;;;20.05;100.00
12475;BME280;6302;42.624;23.334;2023-09-18T07:48:00;93865.66;;;20.22;100.00
12475;BME280;6302;42.624;23.334;2023-09-18T07:50:27;93865.53;;;20.25;100.00
12475;BME280;6302;42.624;23.334;2023-09-18T07:52:56;93875.88;;;20.27;100.00
12475;BME280;6302;42.624;23.334;2023-09-18T07:55:24;93867.53;;;20.34;100.00
12475;BME280;6302;42.624;23.334;2023-09-18T07:57:51;93863.16;;;20.49;100.00
12475;BME280;6302;42.624;23.334;2023-09-18T08:00:19;93869.13;;;20.53;100.00
12475;BME280;6302;42.624;23.334;2023-09-18T08:02:48;93865.03;;;20.70;100.00
12475;BME280;6302;42.624;23.334;2023-09-18T08:05:17;93862.81;;;20.77;100.00
12475;BME280;6302;42.624;23.334;2023-09-18T08:07:44;93869.72;;;20.79;100.00
12475;BME280;6302;42.624;23.334;2023-09-18T08:10:13;93857.91;;;20.85;100.00
12475;BME280;6302;42.624;23.334;2023-09-18T08:12:41;93861.69;;;20.88;100.00
12475;BME280;6302;42.624;23.334;2023-09-18T08:15:08;93870.25;;;20.95;100.00
12475;BME280;6302;42.624;23.334;2023-09-18T08:17:36;93860.66;;;20.94;100.00
12475;BME280;6302;42.624;23.334;2023-09-18T08:20:04;93867.56;;;21.04;100.00
12475;BME280;6302;42.624;23.334;2023-09-18T08:22:39;93867.03;;;21.18;100.00
12475;BME280;6302;42.624;23.334;2023-09-18T08:25:07;93864.22;;;21.31;100.00
12475;BME280;6302;42.624;23.334;2023-09-18T08:27:37;93855.84;;;21.29;100.00
12475;BME280;6302;42.624;23.334;2023-09-18T08:30:06;93861.69;;;21.36;100.00
12475;BME280;6302;42.624;23.334;2023-09-18T08:32:35;93858.72;;;21.44;100.00
12475;BME280;6302;42.624;23.334;2023-09-18T08:35:02;93855.72;;;21.51;100.00
12475;BME280;6302;42.624;23.334;2023-09-18T08:37:29;93853.34;;;21.62;100.00
12475;BME280;6302;42.624;23.334;2023-09-18T08:39:57;93849.75;;;21.74;100.00
12475;BME280;6302;42.624;23.334;2023-09-18T08:42:27;93842.25;;;21.69;100.00
12475;BME280;6302;42.624;23.334;2023-09-18T08:44:58;93853.66;;;21.73;100.00
12475;BME280;6302;42.624;23.334;2023-09-18T08:47:26;93848.13;;;21.67;100.00
12475;BME280;6302;42.624;23.334;2023-09-18T08:49:55;93845.28;;;21.80;100.00
12475;BME280;6302;42.624;23.334;2023-09-18T08:52:24;93842.88;;;22.00;100.00
12475;BME280;6302;42.624;23.334;2023-09-18T08:54:53;93851.41;;;22.08;100.00
12475;BME280;6302;42.624;23.334;2023-09-18T08:57:24;93844.69;;;22.21;100.00
12475;BME280;6302;42.624;23.334;2023-09-18T08:59:55;93839.84;;;22.34;100.00
12475;BME280;6302;42.624;23.334;2023-09-18T09:02:41;93838.31;;;22.51;100.00
12475;BME280;6302;42.624;23.334;2023-09-18T09:05:27;93831.25;;;22.63;100.00
12475;BME280;6302;42.624;23.334;2023-09-18T09:08:00;93836.47;;;22.66;100.00
12475;BME280;6302;42.624;23.334;2023-09-18T09:10:36;93834.53;;;22.67;100.00
12475;BME280;6302;42.624;23.334;2023-09-18T09:13:56;93834.06;;;22.78;100.00
12475;BME280;6302;42.624;23.334;2023-09-18T09:16:55;93839.38;;;22.96;99.42
12475;BME280;6302;42.624;23.334;2023-09-18T09:19:34;93839.28;;;23.14;95.11
12475;BME280;6302;42.624;23.334;2023-09-18T09:22:25;93834.69;;;23.29;94.95
12475;BME280;6302;42.624;23.334;2023-09-18T09:25:26;93830.13;;;23.44;93.43
12475;BME280;6302;42.624;23.334;2023-09-18T09:28:01;93828.03;;;23.63;94.69
12475;BME280;6302;42.624;23.334;2023-09-18T09:30:34;93821.47;;;23.78;90.56
12475;BME280;6302;42.624;23.334;2023-09-18T09:33:04;93822.34;;;23.84;88.30
12475;BME280;6302;42.624;23.334;2023-09-18T09:35:37;93818.69;;;23.87;83.79
12475;BME280;6302;42.624;23.334;2023-09-18T09:38:08;93818.78;;;23.93;84.02
12475;BME280;6302;42.624;23.334;2023-09-18T09:40:39;93821.75;;;23.80;82.04
12475;BME280;6302;42.624;23.334;2023-09-18T09:43:08;93818.47;;;23.76;85.59
12475;BME280;6302;42.624;23.334;2023-09-18T09:45:42;93809.53;;;23.85;87.61
12475;BME280;6302;42.624;23.334;2023-09-18T09:48:19;93811.16;;;23.91;87.64
12475;BME280;6302;42.624;23.334;2023-09-18T09:51:06;93810.75;;;23.84;79.14
12475;BME280;6302;42.624;23.334;2023-09-18T09:56:59;93795.88;;;24.18;78.71
12475;BME280;6302;42.624;23.334;2023-09-18T09:59:49;93798.13;;;24.34;79.20
12475;BME280;6302;42.624;23.334;2023-09-18T10:02:30;93803.84;;;24.36;74.91
12475;BME280;6302;42.624;23.334;2023-09-18T10:05:01;93795.16;;;24.32;76.41
12475;BME280;6302;42.624;23.334;2023-09-18T10:07:28;93794.47;;;24.37;71.51
12475;BME280;6302;42.624;23.334;2023-09-18T10:09:58;93787.38;;;24.39;71.50
12475;BME280;6302;42.624;23.334;2023-09-18T10:12:32;93794.13;;;24.44;77.88
12475;BME280;6302;42.624;23.334;2023-09-18T10:15:08;93794.19;;;24.35;78.10
12475;BME280;6302;42.624;23.334;2023-09-18T10:17:51;93793.75;;;24.22;77.38
12475;BME280;6302;42.624;23.334;2023-09-18T10:20:44;93783.00;;;24.13;75.02
12475;BME280;6302;42.624;23.334;2023-09-18T10:23:36;93782.19;;;23.98;78.12
12475;BME280;6302;42.624;23.334;2023-09-18T10:26:07;93784.34;;;23.93;77.74
12475;BME280;6302;42.624;23.334;2023-09-18T10:28:37;93783.78;;;23.89;77.75
12475;BME280;6302;42.624;23.334;2023-09-18T10:31:05;93775.03;;;23.94;79.87
12475;BME280;6302;42.624;23.334;2023-09-18T10:33:37;93767.31;;;24.17;79.71
12475;BME280;6302;42.624;23.334;2023-09-18T10:36:05;93770.56;;;24.35;79.02
12475;BME280;6302;42.624;23.334;2023-09-18T10:38:34;93758.03;;;24.52;78.87
12475;BME280;6302;42.624;23.334;2023-09-18T10:41:05;93758.50;;;24.66;77.33
12475;BME280;6302;42.624;23.334;2023-09-18T10:43:34;93750.44;;;24.71;77.47
12475;BME280;6302;42.624;23.334;2023-09-18T10:46:01;93757.91;;;24.76;77.21
12475;BME280;6302;42.624;23.334;2023-09-18T10:48:28;93754.31;;;24.99;77.04
12475;BME280;6302;42.624;23.334;2023-09-18T10:50:57;93752.97;;;25.09;73.51
12475;BME280;6302;42.624;23.334;2023-09-18T10:53:32;93746.38;;;25.16;69.39
12475;BME280;6302;42.624;23.334;2023-09-18T10:56:01;93741.38;;;25.09;73.07
12475;BME280;6302;42.624;23.334;2023-09-18T10:58:30;93739.50;;;25.15;73.15
12475;BME280;6302;42.624;23.334;2023-09-18T11:01:01;93741.66;;;25.31;72.14
12475;BME280;6302;42.624;23.334;2023-09-18T11:03:33;93748.78;;;25.49;72.86
12475;BME280;6302;42.624;23.334;2023-09-18T11:06:12;93743.84;;;25.47;67.94
12475;BME280;6302;42.624;23.334;2023-09-18T11:08:46;93737.47;;;25.50;69.35
12475;BME280;6302;42.624;23.334;2023-09-18T11:11:19;93733.38;;;25.40;69.47
12475;BME280;6302;42.624;23.334;2023-09-18T11:13:48;93719.34;;;25.42;68.37
12475;BME280;6302;42.624;23.334;2023-09-18T11:16:34;93730.06;;;25.51;68.41
12475;BME280;6302;42.624;23.334;2023-09-18T11:19:17;93724.28;;;25.63;66.31
12475;BME280;6302;42.624;23.334;2023-09-18T11:22:07;93722.72;;;25.77;67.37
12475;BME280;6302;42.624;23.334;2023-09-18T11:24:46;93719.06;;;25.60;66.30
12475;BME280;6302;42.624;23.334;2023-09-18T11:27:25;93719.19;;;25.71;67.94
12475;BME280;6302;42.624;23.334;2023-09-18T11:30:07;93713.88;;;25.82;65.40
12475;BME280;6302;42.624;23.334;2023-09-18T11:32:40;93716.19;;;25.69;65.77
12475;BME280;6302;42.624;23.334;2023-09-18T11:35:15;93708.84;;;25.49;66.73
12475;BME280;6302;42.624;23.334;2023-09-18T11:38:09;93710.28;;;25.45;66.05
12475;BME280;6302;42.624;23.334;2023-09-18T11:40:42;93705.28;;;25.63;64.51
12475;BME280;6302;42.624;23.334;2023-09-18T11:43:23;93700.03;;;25.80;66.41
12475;BME280;6302;42.624;23.334;2023-09-18T11:45:57;93698.22;;;25.97;64.51
12475;BME280;6302;42.624;23.334;2023-09-18T11:48:28;93689.75;;;26.15;63.69
12475;BME280;6302;42.624;23.334;2023-09-18T11:51:00;93696.31;;;26.34;63.80
12475;BME280;6302;42.624;23.334;2023-09-18T11:53:34;93689.75;;;26.46;61.91
12475;BME280;6302;42.624;23.334;2023-09-18T11:56:12;93682.81;;;26.45;59.79
12475;BME280;6302;42.624;23.334;2023-09-18T11:58:52;93672.09;;;26.68;61.36
12475;BME280;6302;42.624;23.334;2023-09-18T12:01:34;93678.44;;;26.59;60.51
12475;BME280;6302;42.624;23.334;2023-09-18T12:04:19;93681.09;;;26.48;57.00
12475;BME280;6302;42.624;23.334;2023-09-18T12:07:06;93681.75;;;26.37;57.38
12475;BME280;6302;42.624;23.334;2023-09-18T12:09:59;93682.75;;;26.09;57.76
12475;BME280;6302;42.624;23.334;2023-09-18T12:12:45;93683.41;;;25.98;58.72
12475;BME280;6302;42.624;23.334;2023-09-18T12:15:25;93681.28;;;25.82;59.41
12475;BME280;6302;42.624;23.334;2023-09-18T12:18:15;93683.19;;;25.76;60.62
12475;BME280;6302;42.624;23.334;2023-09-18T12:20:52;93681.78;;;25.55;61.94
12475;BME280;6302;42.624;23.334;2023-09-18T12:26:34;93669.78;;;25.67;61.77
12475;BME280;6302;42.624;23.334;2023-09-18T12:29:08;93671.00;;;25.66;61.73
12475;BME280;6302;42.624;23.334;2023-09-18T12:31:43;93668.19;;;25.55;64.18
12475;BME280;6302;42.624;23.334;2023-09-18T12:34:24;93670.91;;;25.35;67.23
12475;BME280;6302;42.624;23.334;2023-09-18T12:37:11;93671.88;;;25.32;67.05
12475;BME280;6302;42.624;23.334;2023-09-18T12:39:48;93670.50;;;25.21;69.86
12475;BME280;6302;42.624;23.334;2023-09-18T12:42:31;93677.25;;;25.06;71.02
12475;BME280;6302;42.624;23.334;2023-09-18T12:45:17;93670.94;;;24.94;72.00
12475;BME280;6302;42.624;23.334;2023-09-18T12:47:58;93678.25;;;24.88;72.88
12475;BME280;6302;42.624;23.334;2023-09-18T12:50:33;93671.00;;;24.80;73.70
12475;BME280;6302;42.624;23.334;2023-09-18T12:53:21;93666.31;;;24.45;75.36
12475;BME280;6302;42.624;23.334;2023-09-18T12:56:16;93664.13;;;24.49;76.34
12475;BME280;6302;42.624;23.334;2023-09-18T12:59:02;93661.50;;;24.55;78.07
12475;BME280;6302;42.624;23.334;2023-09-18T13:01:40;93661.91;;;24.48;78.50
12475;BME280;6302;42.624;23.334;2023-09-18T13:04:14;93650.63;;;24.35;77.64
12475;BME280;6302;42.624;23.334;2023-09-18T13:07:10;93656.13;;;24.40;78.56
12475;BME280;6302;42.624;23.334;2023-09-18T13:12:49;93653.81;;;24.68;76.10
12475;BME280;6302;42.624;23.334;2023-09-18T13:15:44;93655.22;;;24.78;75.72
12475;BME280;6302;42.624;23.334;2023-09-18T13:18:18;93655.06;;;24.87;74.99
12475;BME280;6302;42.624;23.334;2023-09-18T13:20:56;93652.78;;;24.80;77.03
12475;BME280;6302;42.624;23.334;2023-09-18T13:23:40;93642.09;;;24.77;76.52
12475;BME280;6302;42.624;23.334;2023-09-18T13:26:21;93649.16;;;24.69;75.75
12475;BME280;6302;42.624;23.334;2023-09-18T13:29:12;93651.78;;;24.63;75.79
12475;BME280;6302;42.624;23.334;2023-09-18T13:31:49;93646.09;;;24.61;75.35
12475;BME280;6302;42.624;23.334;2023-09-18T13:34:23;93649.75;;;24.58;74.59
12475;BME280;6302;42.624;23.334;2023-09-18T13:37:06;93646.09;;;24.61;75.82
12475;BME280;6302;42.624;23.334;2023-09-18T13:39:46;93648.41;;;24.68;76.49
12475;BME280;6302;42.624;23.334;2023-09-18T13:42:26;93645.56;;;24.77;75.45
12475;BME280;6302;42.624;23.334;2023-09-18T13:45:06;93648.91;;;24.87;75.75
12475;BME280;6302;42.624;23.334;2023-09-18T13:47:53;93644.56;;;24.95;74.07
12475;BME280;6302;42.624;23.334;2023-09-18T13:50:30;93641.94;;;25.00;72.98
12475;BME280;6302;42.624;23.334;2023-09-18T13:53:06;93640.97;;;25.03;73.57
12475;BME280;6302;42.624;23.334;2023-09-18T13:55:43;93646.25;;;25.12;73.43
12475;BME280;6302;42.624;23.334;2023-09-18T13:58:18;93643.00;;;25.08;72.17